sensor_id;sensor_type;location;lat;lon;timestamp;P1;durP1;ratioP1;P2;durP2;ratioP2
37097;SDS011;63608;49.572;12.348;2023-04-06T00:00:54;6.70;;;6.10;;
37097;SDS011;63608;49.572;12.348;2023-04-06T00:03:00;7.00;;;6.30;;
37097;SDS011;63608;49.572;12.348;2023-04-06T00:05:03;7.43;;;6.43;;
37097;SDS011;63608;49.572;12.348;2023-04-06T00:07:06;7.57;;;6.87;;
37097;SDS011;63608;49.572;12.348;2023-04-06T00:09:08;8.63;;;7.27;;
37097;SDS011;63608;49.572;12.348;2023-04-06T00:11:16;7.57;;;6.77;;
37097;SDS011;63608;49.572;12.348;2023-04-06T00:13:19;7.33;;;6.63;;
37097;SDS011;63608;49.572;12.348;2023-04-06T00:15:22;7.50;;;6.80;;
37097;SDS011;63608;49.572;12.348;2023-04-06T00:17:25;7.83;;;7.03;;
37097;SDS011;63608;49.572;12.348;2023-04-06T00:19:28;8.07;;;6.90;;
37097;SDS011;63608;49.572;12.348;2023-04-06T00:21:30;7.20;;;6.50;;
37097;SDS011;63608;49.572;12.348;2023-04-06T00:23:35;7.47;;;6.73;;
37097;SDS011;63608;49.572;12.348;2023-04-06T00:25:37;7.63;;;6.93;;
37097;SDS011;63608;49.572;12.348;2023-04-06T00:27:42;7.30;;;6.60;;
37097;SDS011;63608;49.572;12.348;2023-04-06T00:29:46;7.47;;;6.77;;
37097;SDS011;63608;49.572;12.348;2023-04-06T00:31:49;7.70;;;6.63;;
37097;SDS011;63608;49.572;12.348;2023-04-06T00:33:51;7.40;;;6.77;;
37097;SDS011;63608;49.572;12.348;2023-04-06T00:35:54;6.80;;;6.20;;
37097;SDS011;63608;49.572;12.348;2023-04-06T00:37:56;7.10;;;6.50;;
37097;SDS011;63608;49.572;12.348;2023-04-06T00:39:59;6.93;;;6.33;;
37097;SDS011;63608;49.572;12.348;2023-04-06T00:42:06;6.93;;;6.20;;
37097;SDS011;63608;49.572;12.348;2023-04-06T00:44:13;6.30;;;5.80;;
37097;SDS011;63608;49.572;12.348;2023-04-06T00:46:16;6.27;;;5.77;;
37097;SDS011;63608;49.572;12.348;2023-04-06T00:48:20;6.40;;;5.83;;
37097;SDS011;63608;49.572;12.348;2023-04-06T00:50:22;7.73;;;6.17;;
37097;SDS011;63608;49.572;12.348;2023-04-06T00:52:24;6.90;;;6.10;;
37097;SDS011;63608;49.572;12.348;2023-04-06T00:54:28;7.00;;;6.40;;
37097;SDS011;63608;49.572;12.348;2023-04-06T00:56:31;6.53;;;5.90;;
37097;SDS011;63608;49.572;12.348;2023-04-06T00:58:35;7.07;;;6.37;;
37097;SDS011;63608;49.572;12.348;2023-04-06T01:00:40;6.90;;;6.20;;
37097;SDS011;63608;49.572;12.348;2023-04-06T01:02:44;8.33;;;6.90;;
37097;SDS011;63608;49.572;12.348;2023-04-06T01:04:48;7.00;;;6.30;;
37097;SDS011;63608;49.572;12.348;2023-04-06T01:06:50;7.27;;;6.60;;
37097;SDS011;63608;49.572;12.348;2023-04-06T01:08:53;8.20;;;7.27;;
37097;SDS011;63608;49.572;12.348;2023-04-06T01:10:56;7.33;;;6.63;;
37097;SDS011;63608;49.572;12.348;2023-04-06T01:13:01;9.63;;;6.40;;
37097;SDS011;63608;49.572;12.348;2023-04-06T01:15:04;8.77;;;7.40;;
37097;SDS011;63608;49.572;12.348;2023-04-06T01:17:10;8.63;;;6.60;;
37097;SDS011;63608;49.572;12.348;2023-04-06T01:19:13;9.57;;;7.17;;
37097;SDS011;63608;49.572;12.348;2023-04-06T01:21:15;6.77;;;6.20;;
37097;SDS011;63608;49.572;12.348;2023-04-06T01:23:22;6.77;;;6.23;;
37097;SDS011;63608;49.572;12.348;2023-04-06T01:25:24;7.20;;;6.60;;
37097;SDS011;63608;49.572;12.348;2023-04-06T01:27:27;7.23;;;6.53;;
37097;SDS011;63608;49.572;12.348;2023-04-06T01:29:31;7.20;;;6.50;;
37097;SDS011;63608;49.572;12.348;2023-04-06T01:31:33;7.33;;;6.63;;
37097;SDS011;63608;49.572;12.348;2023-04-06T01:33:35;8.43;;;7.10;;
37097;SDS011;63608;49.572;12.348;2023-04-06T01:35:38;7.63;;;6.87;;
37097;SDS011;63608;49.572;12.348;2023-04-06T01:37:40;7.10;;;6.43;;
37097;SDS011;63608;49.572;12.348;2023-04-06T01:39:45;7.57;;;6.87;;
37097;SDS011;63608;49.572;12.348;2023-04-06T01:41:48;7.53;;;6.87;;
37097;SDS011;63608;49.572;12.348;2023-04-06T01:43:53;7.30;;;6.60;;
37097;SDS011;63608;49.572;12.348;2023-04-06T01:45:55;7.10;;;6.50;;
37097;SDS011;63608;49.572;12.348;2023-04-06T01:48:01;8.10;;;6.93;;
37097;SDS011;63608;49.572;12.348;2023-04-06T01:50:03;7.33;;;6.63;;
37097;SDS011;63608;49.572;12.348;2023-04-06T01:52:10;7.90;;;7.20;;
37097;SDS011;63608;49.572;12.348;2023-04-06T01:54:14;6.50;;;6.00;;
37097;SDS011;63608;49.572;12.348;2023-04-06T01:56:19;6.73;;;6.13;;
37097;SDS011;63608;49.572;12.348;2023-04-06T01:58:22;7.20;;;6.60;;
37097;SDS011;63608;49.572;12.348;2023-04-06T02:00:25;8.00;;;7.20;;
37097;SDS011;63608;49.572;12.348;2023-04-06T02:02:30;7.30;;;6.60;;
37097;SDS011;63608;49.572;12.348;2023-04-06T02:04:32;7.30;;;6.60;;
37097;SDS011;63608;49.572;12.348;2023-04-06T02:06:35;7.20;;;6.60;;
37097;SDS011;63608;49.572;12.348;2023-04-06T02:08:37;7.33;;;6.60;;
37097;SDS011;63608;49.572;12.348;2023-04-06T02:10:40;7.63;;;6.80;;
37097;SDS011;63608;49.572;12.348;2023-04-06T02:12:44;6.80;;;6.10;;
37097;SDS011;63608;49.572;12.348;2023-04-06T02:14:46;7.67;;;6.87;;
37097;SDS011;63608;49.572;12.348;2023-04-06T02:16:49;8.73;;;7.20;;
37097;SDS011;63608;49.572;12.348;2023-04-06T02:18:52;8.83;;;6.50;;
37097;SDS011;63608;49.572;12.348;2023-04-06T02:20:58;10.90;;;7.30;;
37097;SDS011;63608;49.572;12.348;2023-04-06T02:23:02;7.50;;;6.60;;
37097;SDS011;63608;49.572;12.348;2023-04-06T02:25:05;7.50;;;6.70;;
37097;SDS011;63608;49.572;12.348;2023-04-06T02:27:08;8.30;;;6.60;;
37097;SDS011;63608;49.572;12.348;2023-04-06T02:29:12;7.87;;;7.10;;
37097;SDS011;63608;49.572;12.348;2023-04-06T02:31:15;8.70;;;7.70;;
37097;SDS011;63608;49.572;12.348;2023-04-06T02:33:17;7.90;;;7.00;;
37097;SDS011;63608;49.572;12.348;2023-04-06T02:35:20;7.20;;;6.50;;
37097;SDS011;63608;49.572;12.348;2023-04-06T02:37:22;8.13;;;6.90;;
37097;SDS011;63608;49.572;12.348;2023-04-06T02:39:25;7.97;;;7.17;;
37097;SDS011;63608;49.572;12.348;2023-04-06T02:41:28;8.13;;;7.33;;
37097;SDS011;63608;49.572;12.348;2023-04-06T02:43:31;8.43;;;7.17;;
37097;SDS011;63608;49.572;12.348;2023-04-06T02:45:35;7.93;;;7.13;;
37097;SDS011;63608;49.572;12.348;2023-04-06T02:47:38;7.80;;;7.00;;
37097;SDS011;63608;49.572;12.348;2023-04-06T02:49:40;7.40;;;6.70;;
37097;SDS011;63608;49.572;12.348;2023-04-06T02:51:42;7.20;;;6.60;;
37097;SDS011;63608;49.572;12.348;2023-04-06T02:53:45;7.57;;;6.70;;
37097;SDS011;63608;49.572;12.348;2023-04-06T02:55:47;7.90;;;7.20;;
37097;SDS011;63608;49.572;12.348;2023-04-06T02:57:50;7.67;;;6.97;;
37097;SDS011;63608;49.572;12.348;2023-04-06T02:59:54;8.07;;;7.27;;
37097;SDS011;63608;49.572;12.348;2023-04-06T03:01:59;7.90;;;7.10;;
37097;SDS011;63608;49.572;12.348;2023-04-06T03:04:01;7.50;;;6.70;;
37097;SDS011;63608;49.572;12.348;2023-04-06T03:06:04;9.60;;;7.40;;
37097;SDS011;63608;49.572;12.348;2023-04-06T03:08:07;7.90;;;7.20;;
37097;SDS011;63608;49.572;12.348;2023-04-06T03:10:17;8.10;;;7.30;;
37097;SDS011;63608;49.572;12.348;2023-04-06T03:12:21;8.63;;;7.73;;
37097;SDS011;63608;49.572;12.348;2023-04-06T03:14:24;8.20;;;7.40;;
37097;SDS011;63608;49.572;12.348;2023-04-06T03:16:27;8.10;;;7.40;;
37097;SDS011;63608;49.572;12.348;2023-04-06T03:18:31;8.70;;;7.87;;
37097;SDS011;63608;49.572;12.348;2023-04-06T03:20:33;8.00;;;7.20;;
37097;SDS011;63608;49.572;12.348;2023-04-06T03:22:36;7.90;;;6.80;;
37097;SDS011;63608;49.572;12.348;2023-04-06T03:24:38;7.60;;;6.90;;
37097;SDS011;63608;49.572;12.348;2023-04-06T03:26:40;7.50;;;6.83;;
37097;SDS011;63608;49.572;12.348;2023-04-06T03:28:45;7.60;;;6.90;;
37097;SDS011;63608;49.572;12.348;2023-04-06T03:30:48;7.33;;;6.73;;
37097;SDS011;63608;49.572;12.348;2023-04-06T03:32:51;9.40;;;7.40;;
37097;SDS011;63608;49.572;12.348;2023-04-06T03:34:56;7.40;;;6.80;;
37097;SDS011;63608;49.572;12.348;2023-04-06T03:36:59;7.53;;;6.83;;
37097;SDS011;63608;49.572;12.348;2023-04-06T03:39:02;8.10;;;7.30;;
37097;SDS011;63608;49.572;12.348;2023-04-06T03:41:06;7.87;;;7.07;;
37097;SDS011;63608;49.572;12.348;2023-04-06T03:43:09;8.07;;;7.37;;
37097;SDS011;63608;49.572;12.348;2023-04-06T03:45:11;8.57;;;7.67;;
37097;SDS011;63608;49.572;12.348;2023-04-06T03:47:15;8.93;;;7.93;;
37097;SDS011;63608;49.572;12.348;2023-04-06T03:49:18;7.83;;;7.13;;
37097;SDS011;63608;49.572;12.348;2023-04-06T03:51:22;8.20;;;7.40;;
37097;SDS011;63608;49.572;12.348;2023-04-06T03:53:25;8.90;;;7.20;;
37097;SDS011;63608;49.572;12.348;2023-04-06T03:55:27;8.90;;;7.87;;
37097;SDS011;63608;49.572;12.348;2023-04-06T03:57:30;10.27;;;8.80;;
37097;SDS011;63608;49.572;12.348;2023-04-06T03:59:32;11.07;;;8.77;;
37097;SDS011;63608;49.572;12.348;2023-04-06T04:01:34;10.60;;;8.13;;
37097;SDS011;63608;49.572;12.348;2023-04-06T04:03:37;8.73;;;7.83;;
37097;SDS011;63608;49.572;12.348;2023-04-06T04:05:40;9.40;;;7.67;;
37097;SDS011;63608;49.572;12.348;2023-04-06T04:07:45;9.00;;;7.80;;
37097;SDS011;63608;49.572;12.348;2023-04-06T04:09:48;7.93;;;7.13;;
37097;SDS011;63608;49.572;12.348;2023-04-06T04:11:50;10.07;;;8.60;;
37097;SDS011;63608;49.572;12.348;2023-04-06T04:13:56;9.03;;;7.67;;
37097;SDS011;63608;49.572;12.348;2023-04-06T04:15:58;9.50;;;8.50;;
37097;SDS011;63608;49.572;12.348;2023-04-06T04:18:01;9.83;;;8.27;;
37097;SDS011;63608;49.572;12.348;2023-04-06T04:20:05;10.10;;;8.40;;
37097;SDS011;63608;49.572;12.348;2023-04-06T04:22:08;11.80;;;8.67;;
37097;SDS011;63608;49.572;12.348;2023-04-06T04:24:17;10.03;;;8.00;;
37097;SDS011;63608;49.572;12.348;2023-04-06T04:26:20;8.70;;;7.80;;
37097;SDS011;63608;49.572;12.348;2023-04-06T04:28:23;8.30;;;7.50;;
37097;SDS011;63608;49.572;12.348;2023-04-06T04:30:26;12.97;;;7.70;;
37097;SDS011;63608;49.572;12.348;2023-04-06T04:32:28;9.03;;;7.77;;
37097;SDS011;63608;49.572;12.348;2023-04-06T04:34:31;8.63;;;7.73;;
37097;SDS011;63608;49.572;12.348;2023-04-06T04:36:34;8.50;;;7.70;;
37097;SDS011;63608;49.572;12.348;2023-04-06T04:38:38;8.37;;;7.57;;
37097;SDS011;63608;49.572;12.348;2023-04-06T04:40:43;9.10;;;7.73;;
37097;SDS011;63608;49.572;12.348;2023-04-06T04:42:46;8.70;;;7.80;;
37097;SDS011;63608;49.572;12.348;2023-04-06T04:44:48;9.50;;;7.47;;
37097;SDS011;63608;49.572;12.348;2023-04-06T04:47:01;8.87;;;8.00;;
37097;SDS011;63608;49.572;12.348;2023-04-06T04:49:06;9.00;;;7.53;;
37097;SDS011;63608;49.572;12.348;2023-04-06T04:51:09;8.40;;;7.60;;
37097;SDS011;63608;49.572;12.348;2023-04-06T04:53:12;10.20;;;8.03;;
37097;SDS011;63608;49.572;12.348;2023-04-06T04:55:15;9.00;;;8.10;;
37097;SDS011;63608;49.572;12.348;2023-04-06T04:57:19;11.10;;;8.13;;
37097;SDS011;63608;49.572;12.348;2023-04-06T04:59:22;8.97;;;8.07;;
37097;SDS011;63608;49.572;12.348;2023-04-06T05:01:25;10.80;;;7.93;;
37097;SDS011;63608;49.572;12.348;2023-04-06T05:03:27;8.90;;;8.00;;
37097;SDS011;63608;49.572;12.348;2023-04-06T05:05:30;9.40;;;8.10;;
37097;SDS011;63608;49.572;12.348;2023-04-06T05:07:33;10.10;;;8.30;;
37097;SDS011;63608;49.572;12.348;2023-04-06T05:09:36;9.17;;;8.23;;
37097;SDS011;63608;49.572;12.348;2023-04-06T05:11:38;9.37;;;8.00;;
37097;SDS011;63608;49.572;12.348;2023-04-06T05:13:42;9.47;;;7.87;;
37097;SDS011;63608;49.572;12.348;2023-04-06T05:15:44;9.93;;;8.60;;
37097;SDS011;63608;49.572;12.348;2023-04-06T05:17:48;12.03;;;8.60;;
37097;SDS011;63608;49.572;12.348;2023-04-06T05:19:50;10.30;;;8.67;;
37097;SDS011;63608;49.572;12.348;2023-04-06T05:21:52;10.10;;;8.57;;
37097;SDS011;63608;49.572;12.348;2023-04-06T05:23:55;9.70;;;8.70;;
37097;SDS011;63608;49.572;12.348;2023-04-06T05:26:02;12.03;;;8.47;;
37097;SDS011;63608;49.572;12.348;2023-04-06T05:28:05;16.70;;;11.90;;
37097;SDS011;63608;49.572;12.348;2023-04-06T05:30:09;13.90;;;10.40;;
37097;SDS011;63608;49.572;12.348;2023-04-06T05:32:12;10.80;;;9.70;;
37097;SDS011;63608;49.572;12.348;2023-04-06T05:34:14;17.77;;;10.17;;
37097;SDS011;63608;49.572;12.348;2023-04-06T05:36:19;12.40;;;10.20;;
37097;SDS011;63608;49.572;12.348;2023-04-06T05:38:21;12.70;;;11.17;;
37097;SDS011;63608;49.572;12.348;2023-04-06T05:40:25;11.50;;;9.80;;
37097;SDS011;63608;49.572;12.348;2023-04-06T05:42:27;9.87;;;8.80;;
37097;SDS011;63608;49.572;12.348;2023-04-06T05:44:29;9.83;;;8.83;;
37097;SDS011;63608;49.572;12.348;2023-04-06T05:49:16;10.00;;;8.00;;
37097;SDS011;63608;49.572;12.348;2023-04-06T05:51:19;9.77;;;8.60;;
37097;SDS011;63608;49.572;12.348;2023-04-06T05:53:22;12.90;;;8.40;;
37097;SDS011;63608;49.572;12.348;2023-04-06T05:55:26;12.43;;;8.80;;
37097;SDS011;63608;49.572;12.348;2023-04-06T05:57:29;9.90;;;8.17;;
37097;SDS011;63608;49.572;12.348;2023-04-06T05:59:33;9.27;;;8.03;;
37097;SDS011;63608;49.572;12.348;2023-04-06T06:01:35;11.17;;;7.90;;
37097;SDS011;63608;49.572;12.348;2023-04-06T06:03:38;8.77;;;7.97;;
37097;SDS011;63608;49.572;12.348;2023-04-06T06:05:42;10.27;;;8.33;;
37097;SDS011;63608;49.572;12.348;2023-04-06T06:07:45;8.70;;;7.80;;
37097;SDS011;63608;49.572;12.348;2023-04-06T06:09:47;8.67;;;7.77;;
37097;SDS011;63608;49.572;12.348;2023-04-06T06:11:51;8.83;;;7.93;;
37097;SDS011;63608;49.572;12.348;2023-04-06T06:13:54;9.07;;;8.17;;
37097;SDS011;63608;49.572;12.348;2023-04-06T06:15:57;9.60;;;8.60;;
37097;SDS011;63608;49.572;12.348;2023-04-06T06:18:00;8.90;;;8.00;;
37097;SDS011;63608;49.572;12.348;2023-04-06T06:20:03;8.40;;;7.60;;
37097;SDS011;63608;49.572;12.348;2023-04-06T06:22:09;9.80;;;7.80;;
37097;SDS011;63608;49.572;12.348;2023-04-06T06:24:11;9.97;;;8.20;;
37097;SDS011;63608;49.572;12.348;2023-04-06T06:26:15;12.63;;;8.60;;
37097;SDS011;63608;49.572;12.348;2023-04-06T06:28:17;9.77;;;8.50;;
37097;SDS011;63608;49.572;12.348;2023-04-06T06:30:20;9.80;;;8.13;;
37097;SDS011;63608;49.572;12.348;2023-04-06T06:32:23;9.63;;;8.63;;
37097;SDS011;63608;49.572;12.348;2023-04-06T06:34:25;9.60;;;8.60;;
37097;SDS011;63608;49.572;12.348;2023-04-06T06:36:27;9.53;;;8.53;;
37097;SDS011;63608;49.572;12.348;2023-04-06T06:38:32;10.20;;;7.80;;
37097;SDS011;63608;49.572;12.348;2023-04-06T06:40:39;8.73;;;7.73;;
37097;SDS011;63608;49.572;12.348;2023-04-06T06:42:42;9.03;;;8.10;;
37097;SDS011;63608;49.572;12.348;2023-04-06T06:44:46;10.07;;;8.50;;
37097;SDS011;63608;49.572;12.348;2023-04-06T06:46:48;9.97;;;8.60;;
37097;SDS011;63608;49.572;12.348;2023-04-06T06:48:51;10.93;;;8.37;;
37097;SDS011;63608;49.572;12.348;2023-04-06T06:50:53;9.00;;;8.03;;
37097;SDS011;63608;49.572;12.348;2023-04-06T06:52:56;12.00;;;8.50;;
37097;SDS011;63608;49.572;12.348;2023-04-06T06:55:01;9.70;;;8.70;;
37097;SDS011;63608;49.572;12.348;2023-04-06T06:57:03;9.10;;;8.20;;
37097;SDS011;63608;49.572;12.348;2023-04-06T06:59:06;9.57;;;8.20;;
37097;SDS011;63608;49.572;12.348;2023-04-06T07:01:08;11.60;;;8.90;;
37097;SDS011;63608;49.572;12.348;2023-04-06T07:03:11;9.20;;;8.30;;
37097;SDS011;63608;49.572;12.348;2023-04-06T07:05:15;12.47;;;8.10;;
37097;SDS011;63608;49.572;12.348;2023-04-06T07:07:17;15.23;;;8.87;;
37097;SDS011;63608;49.572;12.348;2023-04-06T07:09:21;10.30;;;8.37;;
37097;SDS011;63608;49.572;12.348;2023-04-06T07:11:29;10.40;;;8.10;;
37097;SDS011;63608;49.572;12.348;2023-04-06T07:13:32;8.43;;;7.63;;
37097;SDS011;63608;49.572;12.348;2023-04-06T07:15:35;8.43;;;7.63;;
37097;SDS011;63608;49.572;12.348;2023-04-06T07:17:38;9.43;;;7.90;;
37097;SDS011;63608;49.572;12.348;2023-04-06T07:19:41;9.20;;;7.73;;
37097;SDS011;63608;49.572;12.348;2023-04-06T07:21:44;8.13;;;7.33;;
37097;SDS011;63608;49.572;12.348;2023-04-06T07:23:50;8.00;;;7.00;;
37097;SDS011;63608;49.572;12.348;2023-04-06T07:25:52;8.23;;;7.43;;
37097;SDS011;63608;49.572;12.348;2023-04-06T07:27:58;7.37;;;6.67;;
37097;SDS011;63608;49.572;12.348;2023-04-06T07:30:03;7.93;;;6.97;;
37097;SDS011;63608;49.572;12.348;2023-04-06T07:32:10;8.33;;;7.13;;
37097;SDS011;63608;49.572;12.348;2023-04-06T07:34:14;9.60;;;6.90;;
37097;SDS011;63608;49.572;12.348;2023-04-06T07:36:19;7.60;;;6.90;;
37097;SDS011;63608;49.572;12.348;2023-04-06T07:38:22;9.10;;;7.20;;
37097;SDS011;63608;49.572;12.348;2023-04-06T07:40:25;9.53;;;7.23;;
37097;SDS011;63608;49.572;12.348;2023-04-06T07:42:27;9.03;;;7.87;;
37097;SDS011;63608;49.572;12.348;2023-04-06T07:44:32;8.00;;;7.20;;
37097;SDS011;63608;49.572;12.348;2023-04-06T07:46:34;7.33;;;6.53;;
37097;SDS011;63608;49.572;12.348;2023-04-06T07:48:37;7.17;;;6.50;;
37097;SDS011;63608;49.572;12.348;2023-04-06T07:50:40;8.30;;;7.40;;
37097;SDS011;63608;49.572;12.348;2023-04-06T07:55:39;9.90;;;7.00;;
37097;SDS011;63608;49.572;12.348;2023-04-06T07:57:42;7.90;;;7.10;;
37097;SDS011;63608;49.572;12.348;2023-04-06T07:59:47;11.10;;;8.47;;
37097;SDS011;63608;49.572;12.348;2023-04-06T08:01:51;8.57;;;7.10;;
37097;SDS011;63608;49.572;12.348;2023-04-06T08:03:53;7.10;;;6.43;;
37097;SDS011;63608;49.572;12.348;2023-04-06T08:05:57;8.03;;;6.23;;
37097;SDS011;63608;49.572;12.348;2023-04-06T08:08:00;7.17;;;6.47;;
37097;SDS011;63608;49.572;12.348;2023-04-06T08:10:02;8.13;;;7.10;;
37097;SDS011;63608;49.572;12.348;2023-04-06T08:12:05;8.10;;;7.40;;
37097;SDS011;63608;49.572;12.348;2023-04-06T08:14:09;7.40;;;6.50;;
37097;SDS011;63608;49.572;12.348;2023-04-06T08:16:13;9.57;;;6.20;;
37097;SDS011;63608;49.572;12.348;2023-04-06T08:18:16;6.83;;;6.23;;
37097;SDS011;63608;49.572;12.348;2023-04-06T08:20:18;6.13;;;5.50;;
37097;SDS011;63608;49.572;12.348;2023-04-06T08:22:23;8.47;;;6.07;;
37097;SDS011;63608;49.572;12.348;2023-04-06T08:24:26;6.17;;;5.50;;
37097;SDS011;63608;49.572;12.348;2023-04-06T08:26:28;5.90;;;5.40;;
37097;SDS011;63608;49.572;12.348;2023-04-06T08:28:32;6.90;;;5.77;;
37097;SDS011;63608;49.572;12.348;2023-04-06T08:30:34;5.60;;;5.20;;
37097;SDS011;63608;49.572;12.348;2023-04-06T08:32:39;5.87;;;5.03;;
37097;SDS011;63608;49.572;12.348;2023-04-06T08:34:41;5.27;;;4.87;;
37097;SDS011;63608;49.572;12.348;2023-04-06T08:36:44;5.90;;;5.40;;
37097;SDS011;63608;49.572;12.348;2023-04-06T08:38:47;5.90;;;5.40;;
37097;SDS011;63608;49.572;12.348;2023-04-06T08:40:50;5.03;;;4.63;;
37097;SDS011;63608;49.572;12.348;2023-04-06T08:42:54;6.07;;;5.50;;
37097;SDS011;63608;49.572;12.348;2023-04-06T08:44:57;7.30;;;5.43;;
37097;SDS011;63608;49.572;12.348;2023-04-06T08:47:02;7.40;;;4.50;;
37097;SDS011;63608;49.572;12.348;2023-04-06T08:49:08;5.83;;;5.33;;
37097;SDS011;63608;49.572;12.348;2023-04-06T08:51:10;5.63;;;5.13;;
37097;SDS011;63608;49.572;12.348;2023-04-06T08:53:13;5.83;;;5.27;;
37097;SDS011;63608;49.572;12.348;2023-04-06T08:55:16;5.60;;;5.13;;
37097;SDS011;63608;49.572;12.348;2023-04-06T08:57:18;5.60;;;5.10;;
37097;SDS011;63608;49.572;12.348;2023-04-06T08:59:21;5.63;;;5.17;;
37097;SDS011;63608;49.572;12.348;2023-04-06T09:01:25;5.70;;;5.03;;
37097;SDS011;63608;49.572;12.348;2023-04-06T09:03:28;5.10;;;4.70;;
37097;SDS011;63608;49.572;12.348;2023-04-06T09:05:32;6.30;;;5.10;;
37097;SDS011;63608;49.572;12.348;2023-04-06T09:07:35;7.10;;;5.40;;
37097;SDS011;63608;49.572;12.348;2023-04-06T09:09:39;5.70;;;5.20;;
37097;SDS011;63608;49.572;12.348;2023-04-06T09:11:48;6.57;;;5.60;;
37097;SDS011;63608;49.572;12.348;2023-04-06T09:13:53;5.50;;;5.00;;
37097;SDS011;63608;49.572;12.348;2023-04-06T09:16:01;6.27;;;5.70;;
37097;SDS011;63608;49.572;12.348;2023-04-06T09:18:04;5.50;;;5.00;;
37097;SDS011;63608;49.572;12.348;2023-04-06T09:20:08;5.90;;;5.30;;
37097;SDS011;63608;49.572;12.348;2023-04-06T09:22:13;5.60;;;5.20;;
37097;SDS011;63608;49.572;12.348;2023-04-06T09:24:16;7.70;;;6.17;;
37097;SDS011;63608;49.572;12.348;2023-04-06T09:26:25;6.97;;;6.27;;
37097;SDS011;63608;49.572;12.348;2023-04-06T09:28:29;6.57;;;5.97;;
37097;SDS011;63608;49.572;12.348;2023-04-06T09:30:31;7.37;;;6.67;;
37097;SDS011;63608;49.572;12.348;2023-04-06T09:32:48;7.13;;;6.40;;
37097;SDS011;63608;49.572;12.348;2023-04-06T09:34:52;6.83;;;6.23;;
37097;SDS011;63608;49.572;12.348;2023-04-06T09:36:56;7.67;;;5.90;;
37097;SDS011;63608;49.572;12.348;2023-04-06T09:39:01;8.07;;;7.00;;
37097;SDS011;63608;49.572;12.348;2023-04-06T09:41:04;9.73;;;6.60;;
37097;SDS011;63608;49.572;12.348;2023-04-06T09:43:06;7.33;;;6.63;;
37097;SDS011;63608;49.572;12.348;2023-04-06T09:45:09;6.97;;;6.17;;
37097;SDS011;63608;49.572;12.348;2023-04-06T09:47:12;7.63;;;6.87;;
37097;SDS011;63608;49.572;12.348;2023-04-06T09:49:16;8.00;;;7.20;;
37097;SDS011;63608;49.572;12.348;2023-04-06T09:51:19;9.20;;;7.00;;
37097;SDS011;63608;49.572;12.348;2023-04-06T09:53:22;7.50;;;6.67;;
37097;SDS011;63608;49.572;12.348;2023-04-06T09:55:30;7.20;;;6.50;;
37097;SDS011;63608;49.572;12.348;2023-04-06T09:57:37;7.07;;;6.37;;
37097;SDS011;63608;49.572;12.348;2023-04-06T09:59:48;10.10;;;6.70;;
37097;SDS011;63608;49.572;12.348;2023-04-06T10:01:54;7.80;;;7.00;;
37097;SDS011;63608;49.572;12.348;2023-04-06T10:04:04;7.63;;;6.93;;
37097;SDS011;63608;49.572;12.348;2023-04-06T10:06:13;7.93;;;7.07;;
37097;SDS011;63608;49.572;12.348;2023-04-06T10:08:16;8.60;;;6.63;;
37097;SDS011;63608;49.572;12.348;2023-04-06T10:10:21;8.60;;;6.90;;
37097;SDS011;63608;49.572;12.348;2023-04-06T10:12:27;7.50;;;6.70;;
37097;SDS011;63608;49.572;12.348;2023-04-06T10:14:31;7.10;;;6.50;;
37097;SDS011;63608;49.572;12.348;2023-04-06T10:16:35;8.10;;;7.30;;
37097;SDS011;63608;49.572;12.348;2023-04-06T10:18:39;8.40;;;7.37;;
37097;SDS011;63608;49.572;12.348;2023-04-06T10:20:41;6.90;;;6.30;;
37097;SDS011;63608;49.572;12.348;2023-04-06T10:22:55;10.60;;;6.73;;
37097;SDS011;63608;49.572;12.348;2023-04-06T10:25:01;8.37;;;7.57;;
37097;SDS011;63608;49.572;12.348;2023-04-06T10:27:04;13.53;;;11.27;;
37097;SDS011;63608;49.572;12.348;2023-04-06T10:29:17;13.37;;;9.37;;
37097;SDS011;63608;49.572;12.348;2023-04-06T10:31:24;7.03;;;6.33;;
37097;SDS011;63608;49.572;12.348;2023-04-06T10:33:27;7.53;;;6.80;;
37097;SDS011;63608;49.572;12.348;2023-04-06T10:35:37;7.27;;;6.40;;
37097;SDS011;63608;49.572;12.348;2023-04-06T10:37:46;6.40;;;5.80;;
37097;SDS011;63608;49.572;12.348;2023-04-06T10:39:51;7.90;;;7.10;;
37097;SDS011;63608;49.572;12.348;2023-04-06T10:41:58;7.60;;;6.47;;
37097;SDS011;63608;49.572;12.348;2023-04-06T10:44:18;7.00;;;6.40;;
37097;SDS011;63608;49.572;12.348;2023-04-06T10:46:24;9.40;;;7.70;;
37097;SDS011;63608;49.572;12.348;2023-04-06T10:48:36;9.17;;;6.80;;
37097;SDS011;63608;49.572;12.348;2023-04-06T10:50:41;6.90;;;6.20;;
37097;SDS011;63608;49.572;12.348;2023-04-06T10:52:46;7.47;;;6.23;;
37097;SDS011;63608;49.572;12.348;2023-04-06T10:54:50;10.60;;;6.67;;
37097;SDS011;63608;49.572;12.348;2023-04-06T10:56:53;7.30;;;6.60;;
37097;SDS011;63608;49.572;12.348;2023-04-06T10:58:56;7.03;;;6.33;;
37097;SDS011;63608;49.572;12.348;2023-04-06T11:01:00;8.23;;;6.57;;
37097;SDS011;63608;49.572;12.348;2023-04-06T11:03:02;7.13;;;6.43;;
37097;SDS011;63608;49.572;12.348;2023-04-06T11:05:05;6.73;;;6.23;;
37097;SDS011;63608;49.572;12.348;2023-04-06T11:07:09;7.00;;;6.13;;
37097;SDS011;63608;49.572;12.348;2023-04-06T11:09:12;6.57;;;6.07;;
37097;SDS011;63608;49.572;12.348;2023-04-06T11:11:26;6.23;;;5.57;;
37097;SDS011;63608;49.572;12.348;2023-04-06T11:13:36;9.23;;;6.50;;
37097;SDS011;63608;49.572;12.348;2023-04-06T11:15:40;8.53;;;6.50;;
37097;SDS011;63608;49.572;12.348;2023-04-06T11:17:48;7.23;;;6.63;;
37097;SDS011;63608;49.572;12.348;2023-04-06T11:19:53;7.60;;;6.83;;
37097;SDS011;63608;49.572;12.348;2023-04-06T11:21:56;7.20;;;6.47;;
37097;SDS011;63608;49.572;12.348;2023-04-06T11:24:03;7.50;;;6.60;;
37097;SDS011;63608;49.572;12.348;2023-04-06T11:26:10;6.90;;;6.30;;
37097;SDS011;63608;49.572;12.348;2023-04-06T11:28:14;7.43;;;6.50;;
37097;SDS011;63608;49.572;12.348;2023-04-06T11:30:18;7.77;;;7.00;;
37097;SDS011;63608;49.572;12.348;2023-04-06T11:32:20;7.37;;;6.67;;
37097;SDS011;63608;49.572;12.348;2023-04-06T11:34:27;6.57;;;5.97;;
37097;SDS011;63608;49.572;12.348;2023-04-06T11:36:32;7.47;;;6.87;;
37097;SDS011;63608;49.572;12.348;2023-04-06T11:38:38;7.17;;;6.57;;
37097;SDS011;63608;49.572;12.348;2023-04-06T11:40:41;6.93;;;6.23;;
37097;SDS011;63608;49.572;12.348;2023-04-06T11:42:44;6.60;;;5.87;;
37097;SDS011;63608;49.572;12.348;2023-04-06T11:44:56;7.30;;;6.60;;
37097;SDS011;63608;49.572;12.348;2023-04-06T11:46:59;7.50;;;6.80;;
37097;SDS011;63608;49.572;12.348;2023-04-06T11:49:05;6.20;;;5.70;;
37097;SDS011;63608;49.572;12.348;2023-04-06T11:51:12;7.03;;;6.43;;
37097;SDS011;63608;49.572;12.348;2023-04-06T11:53:15;7.40;;;6.70;;
37097;SDS011;63608;49.572;12.348;2023-04-06T11:55:18;7.47;;;6.77;;
37097;SDS011;63608;49.572;12.348;2023-04-06T11:57:21;6.80;;;6.20;;
37097;SDS011;63608;49.572;12.348;2023-04-06T11:59:25;7.40;;;6.63;;
37097;SDS011;63608;49.572;12.348;2023-04-06T12:01:29;6.67;;;6.07;;
37097;SDS011;63608;49.572;12.348;2023-04-06T12:03:33;5.80;;;5.40;;
37097;SDS011;63608;49.572;12.348;2023-04-06T12:05:35;6.50;;;5.90;;
37097;SDS011;63608;49.572;12.348;2023-04-06T12:07:40;8.23;;;6.40;;
37097;SDS011;63608;49.572;12.348;2023-04-06T12:09:43;8.57;;;6.33;;
37097;SDS011;63608;49.572;12.348;2023-04-06T12:11:45;6.60;;;6.10;;
37097;SDS011;63608;49.572;12.348;2023-04-06T12:13:48;16.07;;;11.60;;
37097;SDS011;63608;49.572;12.348;2023-04-06T12:15:50;19.43;;;11.53;;
37097;SDS011;63608;49.572;12.348;2023-04-06T12:17:53;7.10;;;6.40;;
37097;SDS011;63608;49.572;12.348;2023-04-06T12:20:00;7.50;;;6.70;;